METAR Data
IDs: Format: Raw Decoded Include TAF

Data at: 1429 UTC 17 Nov 2019

METAR for:KEDC (Austin/Executive Arp, TX, US)
Text:KEDC 171415Z AUTO 00000KT 7SM CLR 07/05 A3009 RMK AO2
Temperature: 7.0°C ( 45°F)
Dewpoint: 5.0°C ( 41°F) [RH = 87%]
Pressure (altimeter):30.09 inches Hg (1019.0 mb)
Winds:calm
Visibility: 7 sm ( 11 km)
Ceiling:at least 12,000 feet AGL
Clouds:sky clear below 12,000 feet AGL
QC Flag:automated observation with no human augmentation